Time;durP1;ratioP1;P1;durP2;ratioP2;P2;SDS_P1;SDS_P2;PMS_P1;PMS_P2;Temp;Humidity;BMP_temperature;BMP_pressure;BME280_temperature;BME280_humidity;BME280_pressure;Samples;Min_cycle;Max_cycle;Signal;HPM_P1;HPM_P2
2020/12/31 00:00:10;;;;;;;9.43;6.65;;;;;11.30;100113.00;;;;5050882;28;20227;-77
2020/12/31 00:02:38;;;;;;;9.60;6.60;;;;;11.30;100107.00;;;;5049988;28;20206;-76
2020/12/31 00:05:04;;;;;;;8.65;6.35;;;;;11.30;100111.00;;;;5059770;28;20215;-77
2020/12/31 00:07:31;;;;;;;7.78;5.47;;;;;11.30;100108.00;;;;5049829;28;20195;-78
2020/12/31 00:09:58;;;;;;;8.05;6.00;;;;;11.30;100104.00;;;;5055832;28;20191;-77
2020/12/31 00:12:25;;;;;;;9.48;6.65;;;;;11.30;100101.00;;;;5067725;28;20191;-77
2020/12/31 00:14:52;;;;;;;9.60;6.07;;;;;11.30;100099.00;;;;5064763;28;21019;-77
2020/12/31 00:17:18;;;;;;;8.18;6.35;;;;;11.40;100101.00;;;;5056422;28;20196;-76
2020/12/31 00:19:46;;;;;;;8.80;6.05;;;;;11.30;100098.00;;;;5060626;28;20195;-77
2020/12/31 00:22:13;;;;;;;7.30;5.53;;;;;11.40;100103.00;;;;5068553;28;20256;-77
2020/12/31 00:24:40;;;;;;;9.40;6.65;;;;;11.40;100100.00;;;;5056055;28;20208;-77
2020/12/31 00:27:06;;;;;;;10.88;6.35;;;;;11.40;100095.00;;;;5055769;28;20260;-77
2020/12/31 00:29:33;;;;;;;10.23;5.97;;;;;11.40;100096.00;;;;5066122;28;20195;-77
2020/12/31 00:32:00;;;;;;;8.93;6.30;;;;;11.40;100086.00;;;;5057538;28;20226;-77
2020/12/31 00:34:27;;;;;;;8.55;6.47;;;;;11.40;100091.00;;;;5067148;28;20244;-77
2020/12/31 00:36:54;;;;;;;10.02;6.38;;;;;11.40;100096.00;;;;5052185;28;20203;-77
2020/12/31 00:39:21;;;;;;;8.00;6.18;;;;;11.40;100087.00;;;;5066436;28;20587;-77
2020/12/31 00:41:48;;;;;;;8.98;6.32;;;;;11.40;100082.00;;;;5068024;28;20206;-77
2020/12/31 00:44:15;;;;;;;12.27;7.00;;;;;11.40;100085.00;;;;5060334;28;20203;-77
2020/12/31 00:46:42;;;;;;;9.18;6.20;;;;;11.40;100081.00;;;;5067801;28;20211;-77
2020/12/31 00:49:09;;;;;;;8.30;6.00;;;;;11.40;100081.00;;;;5062130;28;20276;-78
2020/12/31 00:51:35;;;;;;;9.15;6.97;;;;;11.40;100088.00;;;;5061172;28;20195;-77
2020/12/31 00:54:03;;;;;;;9.55;6.45;;;;;11.40;100091.00;;;;5066662;28;20195;-77
2020/12/31 00:56:30;;;;;;;10.43;6.57;;;;;11.40;100085.00;;;;5066009;28;20219;-77
2020/12/31 00:58:57;;;;;;;11.68;6.55;;;;;11.40;100082.00;;;;5066538;28;20227;-78
2020/12/31 01:01:24;;;;;;;7.68;6.05;;;;;11.40;100078.00;;;;5066772;28;20198;-78
2020/12/31 01:03:51;;;;;;;8.77;6.40;;;;;11.40;100079.00;;;;5053563;28;20202;-77
2020/12/31 01:06:17;;;;;;;10.15;6.63;;;;;11.40;100068.00;;;;5062093;28;20572;-78
2020/12/31 01:08:44;;;;;;;10.20;6.65;;;;;11.40;100078.00;;;;5063034;28;20203;-78
2020/12/31 01:11:12;;;;;;;7.60;6.07;;;;;11.40;100066.00;;;;5060637;28;20211;-78
2020/12/31 01:13:38;;;;;;;8.27;5.70;;;;;11.40;100070.00;;;;5064003;28;20199;-78
2020/12/31 01:16:05;;;;;;;8.57;6.57;;;;;11.40;100068.00;;;;5047867;28;20219;-78
2020/12/31 01:18:32;;;;;;;9.02;6.38;;;;;11.40;100063.00;;;;5054626;28;20537;-78
2020/12/31 01:20:59;;;;;;;9.75;6.30;;;;;11.40;100065.00;;;;5058123;28;20196;-78
2020/12/31 01:23:25;;;;;;;8.50;6.47;;;;;11.40;100075.00;;;;5058228;28;20232;-78
2020/12/31 01:25:52;;;;;;;9.95;6.47;;;;;11.40;100067.00;;;;5057958;28;20201;-77
2020/12/31 01:28:19;;;;;;;8.80;5.80;;;;;11.40;100066.00;;;;5052872;28;20203;-78
2020/12/31 01:30:46;;;;;;;9.45;6.13;;;;;11.40;100066.00;;;;5055072;28;20195;-78
2020/12/31 01:33:13;;;;;;;9.75;5.90;;;;;11.40;100067.00;;;;5054484;28;20204;-78
2020/12/31 01:35:40;;;;;;;8.57;5.55;;;;;11.40;100078.00;;;;5062742;28;20763;-78
2020/12/31 01:38:06;;;;;;;8.20;5.53;;;;;11.40;100068.00;;;;5065218;28;20199;-78
2020/12/31 01:40:33;;;;;;;8.48;5.63;;;;;11.40;100080.00;;;;5066471;28;20673;-78
2020/12/31 01:43:00;;;;;;;7.20;5.88;;;;;11.40;100076.00;;;;5048399;28;20203;-78
2020/12/31 01:45:27;;;;;;;7.82;6.22;;;;;11.40;100078.00;;;;5066992;28;20609;-78
2020/12/31 01:47:54;;;;;;;7.80;5.88;;;;;11.40;100070.00;;;;5071095;28;20199;-77
2020/12/31 01:50:21;;;;;;;9.10;5.40;;;;;11.40;100081.00;;;;5066235;28;20564;-78
2020/12/31 01:52:48;;;;;;;6.82;5.28;;;;;11.40;100083.00;;;;5071532;28;20195;-78
2020/12/31 01:55:15;;;;;;;11.82;5.53;;;;;11.40;100083.00;;;;5062690;28;20215;-77
2020/12/31 01:57:42;;;;;;;7.63;5.07;;;;;11.40;100087.00;;;;5068354;28;20207;-78
2020/12/31 02:00:10;;;;;;;8.35;6.03;;;;;11.40;100080.00;;;;5069603;28;20239;-77
2020/12/31 02:02:37;;;;;;;6.65;5.10;;;;;11.40;100074.00;;;;5068509;28;20206;-77
2020/12/31 02:05:04;;;;;;;7.22;5.28;;;;;11.40;100081.00;;;;5058144;28;20207;-77
2020/12/31 02:07:31;;;;;;;6.75;5.13;;;;;11.40;100081.00;;;;5070218;28;20202;-78
2020/12/31 02:09:58;;;;;;;6.35;4.85;;;;;11.40;100079.00;;;;5070361;28;20440;-78
2020/12/31 02:12:25;;;;;;;6.63;4.72;;;;;11.40;100073.00;;;;5070335;28;20233;-78
2020/12/31 02:14:53;;;;;;;6.28;4.30;;;;;11.40;100077.00;;;;5068114;28;20202;-78
2020/12/31 02:17:20;;;;;;;5.38;4.25;;;;;11.30;100074.00;;;;5070771;28;20728;-78
2020/12/31 02:19:47;;;;;;;7.43;5.03;;;;;11.30;100069.00;;;;5058414;28;20199;-77
2020/12/31 02:22:15;;;;;;;5.47;4.18;;;;;11.30;100066.00;;;;5070061;28;20187;-78
2020/12/31 02:24:42;;;;;;;6.57;4.30;;;;;11.30;100062.00;;;;5056540;28;20203;-78
2020/12/31 02:27:09;;;;;;;6.60;4.30;;;;;11.30;100075.00;;;;5051152;28;20261;-78
2020/12/31 02:29:35;;;;;;;7.43;4.55;;;;;11.30;100064.00;;;;5067180;28;20203;-78
2020/12/31 02:32:02;;;;;;;6.93;4.88;;;;;11.30;100069.00;;;;5063051;28;20272;-78
2020/12/31 02:34:30;;;;;;;6.03;4.38;;;;;11.30;100061.00;;;;5068132;28;20575;-78
2020/12/31 02:36:57;;;;;;;5.47;4.30;;;;;11.30;100062.00;;;;5063236;28;20210;-78
2020/12/31 02:39:24;;;;;;;5.13;3.83;;;;;11.30;100060.00;;;;5070748;28;20199;-78
2020/12/31 02:41:51;;;;;;;5.22;4.22;;;;;11.30;100063.00;;;;5069481;28;20195;-77
2020/12/31 02:44:18;;;;;;;5.80;4.07;;;;;11.30;100062.00;;;;5070727;28;20188;-78
2020/12/31 02:46:45;;;;;;;7.22;5.15;;;;;11.30;100066.00;;;;5066308;28;20202;-78
2020/12/31 02:49:11;;;;;;;8.70;5.10;;;;;11.30;100066.00;;;;5051416;28;20653;-78
2020/12/31 02:51:38;;;;;;;4.68;3.72;;;;;11.20;100054.00;;;;5067886;28;20191;-78
2020/12/31 02:54:05;;;;;;;6.25;4.50;;;;;11.20;100062.00;;;;5052156;28;20196;-77
2020/12/31 02:56:33;;;;;;;5.75;4.30;;;;;11.20;100059.00;;;;5059092;28;20311;-77
2020/12/31 02:58:59;;;;;;;7.07;4.88;;;;;11.30;100062.00;;;;5065788;28;20704;-77
2020/12/31 03:01:26;;;;;;;5.68;3.95;;;;;11.20;100063.00;;;;5065842;28;20722;-77
2020/12/31 03:03:53;;;;;;;6.57;4.20;;;;;11.20;100057.00;;;;5055708;28;20192;-78
2020/12/31 03:06:19;;;;;;;5.18;4.07;;;;;11.20;100060.00;;;;5068805;28;20203;-78
2020/12/31 03:08:47;;;;;;;6.28;4.55;;;;;11.20;100059.00;;;;5060728;28;20203;-78
2020/12/31 03:11:18;;;;;;;6.55;4.43;;;;;11.20;100055.00;;;;5067020;28;20670;-78
2020/12/31 03:13:46;;;;;;;5.15;3.92;;;;;11.20;100054.00;;;;5064551;28;20191;-78
2020/12/31 03:16:12;;;;;;;4.03;3.35;;;;;11.20;100059.00;;;;5068577;28;20222;-77
2020/12/31 03:18:39;;;;;;;5.47;3.85;;;;;11.20;100056.00;;;;5064725;28;20658;-78
2020/12/31 03:21:07;;;;;;;5.40;4.07;;;;;11.20;100060.00;;;;5051346;28;20835;-78
2020/12/31 03:23:33;;;;;;;5.20;3.67;;;;;11.20;100055.00;;;;5068068;28;20215;-77
2020/12/31 03:26:00;;;;;;;7.63;5.00;;;;;11.20;100050.00;;;;5068660;28;20207;-78
2020/12/31 03:28:27;;;;;;;4.60;3.65;;;;;11.20;100045.00;;;;5069003;28;20214;-77
2020/12/31 03:30:54;;;;;;;5.10;3.92;;;;;11.10;100041.00;;;;5058466;28;20277;-78
2020/12/31 03:33:21;;;;;;;5.25;3.95;;;;;11.10;100041.00;;;;5065768;28;20683;-77
2020/12/31 03:35:49;;;;;;;4.72;3.35;;;;;11.10;100039.00;;;;5053008;28;20218;-77
2020/12/31 03:38:18;;;;;;;4.63;3.65;;;;;11.10;100036.00;;;;5068628;28;20213;-77
2020/12/31 03:40:44;;;;;;;6.15;4.00;;;;;11.10;100041.00;;;;5069021;28;20443;-78
2020/12/31 03:43:11;;;;;;;5.05;3.83;;;;;11.10;100041.00;;;;5064312;28;20195;-78
2020/12/31 03:45:40;;;;;;;6.25;4.43;;;;;11.10;100045.00;;;;5069260;28;20694;-77
2020/12/31 03:48:08;;;;;;;4.68;3.42;;;;;11.10;100033.00;;;;5057045;28;20227;-77
2020/12/31 03:50:34;;;;;;;5.35;4.15;;;;;11.10;100027.00;;;;5064940;28;20214;-77
2020/12/31 03:53:01;;;;;;;7.55;4.55;;;;;11.10;100018.00;;;;5069447;28;20195;-77
2020/12/31 03:55:29;;;;;;;5.88;3.88;;;;;11.10;100018.00;;;;5065425;28;20269;-77
2020/12/31 03:57:56;;;;;;;5.97;4.18;;;;;11.10;100013.00;;;;5057278;28;20207;-78
2020/12/31 04:00:22;;;;;;;6.90;5.15;;;;;11.10;100012.00;;;;5064694;28;20215;-78
2020/12/31 04:02:49;;;;;;;5.07;4.25;;;;;11.10;100009.00;;;;5053189;28;20199;-78
2020/12/31 04:05:17;;;;;;;5.50;3.88;;;;;11.10;100015.00;;;;5049703;28;20203;-78
2020/12/31 04:07:43;;;;;;;5.80;4.05;;;;;11.10;100005.00;;;;5058140;28;20203;-77
2020/12/31 04:10:10;;;;;;;7.60;4.28;;;;;11.10;99997.00;;;;5061414;28;20192;-77
2020/12/31 04:12:37;;;;;;;5.20;4.07;;;;;11.10;99998.00;;;;5062762;28;20203;-77
2020/12/31 04:15:04;;;;;;;5.30;3.85;;;;;11.20;99996.00;;;;5059103;28;20674;-78
2020/12/31 04:17:31;;;;;;;5.65;4.03;;;;;11.10;99992.00;;;;5065943;28;20195;-78
2020/12/31 04:19:57;;;;;;;5.80;4.15;;;;;11.20;99990.00;;;;5066215;28;20206;-78
2020/12/31 04:22:25;;;;;;;6.20;4.35;;;;;11.10;99989.00;;;;5063669;28;20210;-78
2020/12/31 04:24:52;;;;;;;6.38;4.90;;;;;11.20;99988.00;;;;5065212;28;20207;-78
2020/12/31 04:27:21;;;;;;;5.55;4.15;;;;;11.10;99985.00;;;;5055544;28;20196;-77
2020/12/31 04:29:48;;;;;;;8.30;4.40;;;;;11.10;99980.00;;;;5062349;28;20368;-77
2020/12/31 04:32:14;;;;;;;9.32;4.57;;;;;11.10;99990.00;;;;5057546;28;20658;-77
2020/12/31 04:34:41;;;;;;;5.20;4.38;;;;;11.20;99981.00;;;;5048435;28;20199;-77
2020/12/31 04:37:08;;;;;;;5.88;4.28;;;;;11.10;99977.00;;;;5058258;28;20223;-77
2020/12/31 04:39:36;;;;;;;5.88;4.15;;;;;11.10;99977.00;;;;5050455;28;20653;-77
2020/12/31 04:42:02;;;;;;;5.55;4.07;;;;;11.20;99984.00;;;;5052033;28;20199;-78
2020/12/31 04:44:29;;;;;;;6.10;4.35;;;;;11.20;99980.00;;;;5067740;28;20577;-78
2020/12/31 04:46:58;;;;;;;6.03;4.40;;;;;11.10;99977.00;;;;5059682;28;20578;-77
2020/12/31 04:49:28;;;;;;;6.70;4.55;;;;;11.10;99973.00;;;;5068032;28;20210;-78
2020/12/31 04:51:56;;;;;;;6.47;4.20;;;;;11.20;99973.00;;;;5049846;28;20265;-78
2020/12/31 04:54:23;;;;;;;7.03;4.50;;;;;11.20;99969.00;;;;5054466;28;20296;-78
2020/12/31 04:56:52;;;;;;;6.45;4.32;;;;;11.10;99970.00;;;;5052398;28;20226;-78
2020/12/31 04:59:19;;;;;;;7.35;4.80;;;;;11.10;99970.00;;;;5055137;28;20704;-78
2020/12/31 05:01:46;;;;;;;6.40;4.95;;;;;11.10;99968.00;;;;5065625;28;20221;-77
2020/12/31 05:04:13;;;;;;;5.07;3.90;;;;;11.10;99963.00;;;;5063243;28;20195;-77
2020/12/31 05:06:41;;;;;;;6.40;4.35;;;;;11.10;99972.00;;;;5060955;28;20200;-78
2020/12/31 05:09:15;;;;;;;6.82;4.60;;;;;11.00;99967.00;;;;5065708;28;20199;-78
2020/12/31 05:11:43;;;;;;;6.00;4.57;;;;;11.10;99969.00;;;;5054240;28;20982;-77
2020/12/31 05:14:11;;;;;;;5.13;3.92;;;;;11.10;99969.00;;;;5059117;28;20187;-78
2020/12/31 05:16:38;;;;;;;5.03;3.55;;;;;11.10;99967.00;;;;5066964;28;20222;-77
2020/12/31 05:19:20;;;;;;;5.03;3.85;;;;;11.00;99968.00;;;;5059311;28;20281;-78
2020/12/31 05:21:47;;;;;;;5.43;3.88;;;;;11.10;99964.00;;;;5063281;28;20222;-78
2020/12/31 05:24:14;;;;;;;6.90;3.95;;;;;11.10;99970.00;;;;5061575;28;20200;-77
2020/12/31 05:26:40;;;;;;;6.78;3.92;;;;;11.10;99970.00;;;;5060928;28;20203;-78
2020/12/31 05:29:09;;;;;;;4.82;3.45;;;;;11.10;99968.00;;;;5062159;28;20223;-78
2020/12/31 05:31:55;;;;;;;4.65;3.53;;;;;11.00;99971.00;;;;5048013;28;20653;-77
2020/12/31 05:34:31;;;;;;;4.45;3.47;;;;;11.00;99974.00;;;;5050826;28;20204;-77
2020/12/31 05:37:13;;;;;;;3.95;3.08;;;;;11.00;99972.00;;;;5061668;28;20272;-77
2020/12/31 05:39:58;;;;;;;4.45;3.75;;;;;11.00;99974.00;;;;5061257;28;20819;-78
2020/12/31 05:42:26;;;;;;;5.32;3.78;;;;;11.10;99971.00;;;;5057729;28;20195;-77
2020/12/31 05:45:07;;;;;;;6.50;3.97;;;;;11.00;99970.00;;;;5054969;28;20622;-78
2020/12/31 05:47:35;;;;;;;5.40;3.88;;;;;11.10;99976.00;;;;5062323;28;20713;-78
2020/12/31 05:50:14;;;;;;;5.82;3.55;;;;;11.10;99975.00;;;;5061753;28;20207;-77
2020/12/31 05:52:41;;;;;;;5.57;3.95;;;;;11.10;99984.00;;;;5053456;28;20332;-78
2020/12/31 05:55:08;;;;;;;5.63;3.67;;;;;11.10;99982.00;;;;5056903;28;20199;-77
2020/12/31 05:57:46;;;;;;;6.18;4.32;;;;;11.00;99984.00;;;;5067106;28;20195;-77
2020/12/31 06:00:20;;;;;;;5.57;4.20;;;;;11.10;99985.00;;;;5064908;28;20221;-77
2020/12/31 06:02:49;;;;;;;4.72;3.72;;;;;11.10;99987.00;;;;5048409;28;20273;-78
2020/12/31 06:05:18;;;;;;;5.22;3.88;;;;;11.10;99990.00;;;;5063357;28;20776;-77
2020/12/31 06:07:47;;;;;;;5.35;3.45;;;;;11.10;99987.00;;;;5065458;28;20769;-78
2020/12/31 06:10:19;;;;;;;6.22;4.15;;;;;11.10;99995.00;;;;5065494;28;20283;-78
2020/12/31 06:12:52;;;;;;;4.30;3.30;;;;;11.10;99998.00;;;;5052358;28;20211;-77
2020/12/31 06:15:28;;;;;;;5.40;3.78;;;;;11.10;99997.00;;;;5051336;28;20196;-78
2020/12/31 06:17:55;;;;;;;4.90;3.47;;;;;11.10;99996.00;;;;5046615;28;20214;-78
2020/12/31 06:20:24;;;;;;;5.65;3.33;;;;;11.10;99996.00;;;;5059851;28;20195;-77
2020/12/31 06:23:02;;;;;;;7.20;3.90;;;;;11.00;99992.00;;;;5056868;28;20535;-78
2020/12/31 06:25:34;;;;;;;5.53;3.90;;;;;11.10;99999.00;;;;5061043;28;20205;-77
2020/12/31 06:28:05;;;;;;;5.07;3.53;;;;;11.10;99991.00;;;;5064611;28;20206;-77
2020/12/31 06:30:34;;;;;;;4.00;3.33;;;;;11.10;99995.00;;;;5051170;28;20200;-78
2020/12/31 06:33:10;;;;;;;4.63;3.22;;;;;11.10;99999.00;;;;5063273;28;20211;-77
2020/12/31 06:35:39;;;;;;;5.03;3.28;;;;;11.10;99997.00;;;;5065308;28;20230;-77
2020/12/31 06:38:06;;;;;;;4.65;3.45;;;;;11.10;99999.00;;;;5067914;28;20195;-77
2020/12/31 06:40:35;;;;;;;3.85;3.17;;;;;11.10;100002.00;;;;5070111;28;20214;-78
2020/12/31 06:43:04;;;;;;;5.45;3.35;;;;;11.10;100001.00;;;;5066579;28;20206;-78
2020/12/31 06:45:40;;;;;;;4.07;2.85;;;;;11.10;99999.00;;;;5063153;28;20205;-78
2020/12/31 06:48:35;;;;;;;7.30;4.38;;;;;11.00;100004.00;;;;5067760;28;20668;-78
2020/12/31 06:51:03;;;;;;;4.25;3.00;;;;;11.10;99998.00;;;;5059298;28;20191;-78
2020/12/31 06:53:32;;;;;;;5.82;3.10;;;;;11.10;100006.00;;;;5060527;28;20982;-78
2020/12/31 06:56:00;;;;;;;4.22;3.13;;;;;11.10;100008.00;;;;5062547;28;20223;-78
2020/12/31 06:58:27;;;;;;;4.88;3.20;;;;;11.10;100003.00;;;;5056822;28;20203;-79
2020/12/31 07:00:55;;;;;;;4.95;3.00;;;;;11.10;100006.00;;;;5060756;28;20660;-78
2020/12/31 07:03:47;;;;;;;3.63;2.90;;;;;11.00;100009.00;;;;5056515;28;20657;-78
2020/12/31 07:06:31;;;;;;;3.15;2.47;;;;;11.00;100013.00;;;;5062694;28;20199;-78
2020/12/31 07:09:01;;;;;;;3.53;2.95;;;;;11.10;100015.00;;;;5068198;28;20329;-78
2020/12/31 07:11:38;;;;;;;4.18;2.92;;;;;11.10;100017.00;;;;5069675;28;20219;-79
2020/12/31 07:14:22;;;;;;;3.40;2.92;;;;;11.00;100016.00;;;;5063562;28;20655;-78
2020/12/31 07:16:58;;;;;;;4.65;2.50;;;;;11.10;100021.00;;;;5059331;28;20227;-78
2020/12/31 07:19:34;;;;;;;3.55;2.50;;;;;11.10;100022.00;;;;5062417;28;20207;-78
2020/12/31 07:22:01;;;;;;;3.83;2.70;;;;;11.10;100020.00;;;;5064381;28;20198;-78
2020/12/31 07:24:29;;;;;;;3.47;2.75;;;;;11.10;100021.00;;;;5063862;28;20208;-78
2020/12/31 07:26:57;;;;;;;3.53;2.83;;;;;11.10;100026.00;;;;5062770;28;20195;-78
2020/12/31 07:29:26;;;;;;;4.15;2.75;;;;;11.10;100031.00;;;;5068117;28;20214;-78
2020/12/31 07:31:53;;;;;;;3.80;2.47;;;;;11.10;100026.00;;;;5065749;28;20195;-78
2020/12/31 07:34:22;;;;;;;3.70;2.63;;;;;11.10;100023.00;;;;5066819;28;20560;-78
2020/12/31 07:37:00;;;;;;;3.55;2.75;;;;;11.10;100022.00;;;;5062419;28;20227;-78
2020/12/31 07:39:27;;;;;;;4.05;2.70;;;;;11.10;100031.00;;;;5056638;28;20191;-78
2020/12/31 07:42:16;;;;;;;3.97;2.85;;;;;11.00;100030.00;;;;5066605;28;20199;-78
2020/12/31 07:44:54;;;;;;;4.50;2.50;;;;;11.10;100028.00;;;;5062021;28;20203;-78
2020/12/31 07:47:23;;;;;;;3.92;2.50;;;;;11.10;100028.00;;;;5049613;28;20203;-78
2020/12/31 07:49:52;;;;;;;4.10;3.17;;;;;11.10;100029.00;;;;5055918;28;20208;-78
2020/12/31 07:52:19;;;;;;;4.05;2.83;;;;;11.10;100036.00;;;;5058981;28;20222;-77
2020/12/31 07:54:46;;;;;;;3.75;2.90;;;;;11.10;100040.00;;;;5050674;28;20557;-78
2020/12/31 07:57:14;;;;;;;4.20;2.45;;;;;11.10;100042.00;;;;5051742;28;20223;-78
2020/12/31 07:59:45;;;;;;;3.78;2.92;;;;;11.10;100045.00;;;;5050417;28;20227;-79
2020/12/31 08:02:16;;;;;;;3.47;2.80;;;;;11.10;100045.00;;;;5049571;28;20207;-78
2020/12/31 08:04:43;;;;;;;12.45;2.60;;;;;11.10;100042.00;;;;5054336;28;20227;-80
2020/12/31 08:07:17;;;;;;;3.75;2.38;;;;;11.10;100045.00;;;;5069270;28;20553;-77
2020/12/31 08:09:47;;;;;;;3.83;2.42;;;;;11.10;100046.00;;;;5067886;28;20214;-77
2020/12/31 08:12:14;;;;;;;3.70;2.67;;;;;11.10;100042.00;;;;5047348;28;20215;-78
2020/12/31 08:14:42;;;;;;;3.60;2.20;;;;;11.10;100041.00;;;;5057986;28;20200;-78
2020/12/31 08:17:09;;;;;;;3.72;2.63;;;;;11.10;100044.00;;;;5056117;28;20242;-78
2020/12/31 08:19:38;;;;;;;3.53;2.10;;;;;11.10;100041.00;;;;5056456;28;20564;-78
2020/12/31 08:22:17;;;;;;;5.78;2.47;;;;;11.10;100045.00;;;;5048485;28;20195;-79
2020/12/31 08:24:48;;;;;;;2.70;1.98;;;;;11.10;100052.00;;;;5051933;28;20199;-78
2020/12/31 08:27:19;;;;;;;4.95;2.50;;;;;11.10;100050.00;;;;5055030;28;20290;-78
2020/12/31 08:29:48;;;;;;;3.75;2.45;;;;;11.10;100043.00;;;;5055986;28;20245;-78
2020/12/31 08:32:23;;;;;;;2.45;1.95;;;;;11.10;100055.00;;;;5048454;28;20195;-78
2020/12/31 08:34:55;;;;;;;3.15;2.05;;;;;11.10;100044.00;;;;5050766;28;20282;-79
2020/12/31 08:37:27;;;;;;;3.35;2.47;;;;;11.20;100052.00;;;;5051728;28;20331;-79
2020/12/31 08:39:56;;;;;;;3.65;2.20;;;;;11.20;100057.00;;;;5059737;28;20195;-79
2020/12/31 08:42:25;;;;;;;3.72;2.10;;;;;11.20;100055.00;;;;5052491;28;20222;-78
2020/12/31 08:44:54;;;;;;;3.47;2.00;;;;;11.20;100057.00;;;;5051340;28;20680;-78
2020/12/31 08:47:24;;;;;;;3.00;1.92;;;;;11.20;100051.00;;;;5064163;28;20281;-78
2020/12/31 08:49:56;;;;;;;3.28;1.83;;;;;11.20;100060.00;;;;5052388;28;20205;-78
2020/12/31 08:52:27;;;;;;;3.50;1.70;;;;;11.20;100059.00;;;;5062150;28;20214;-77
2020/12/31 08:55:12;;;;;;;3.65;2.10;;;;;11.10;100063.00;;;;5056505;28;20195;-79
2020/12/31 08:57:39;;;;;;;2.47;1.65;;;;;11.20;100060.00;;;;5052471;28;20632;-78
2020/12/31 09:00:07;;;;;;;2.05;1.58;;;;;11.20;100057.00;;;;5056578;28;21077;-78
2020/12/31 09:02:35;;;;;;;2.90;2.33;;;;;11.20;100063.00;;;;5057260;28;20744;-78
2020/12/31 09:05:15;;;;;;;2.28;1.80;;;;;11.20;100067.00;;;;5055416;28;20226;-79
2020/12/31 09:07:43;;;;;;;3.13;1.80;;;;;11.20;100074.00;;;;5051182;28;20218;-79
2020/12/31 09:10:15;;;;;;;2.08;1.77;;;;;11.20;100065.00;;;;5052093;28;20195;-78
2020/12/31 09:12:42;;;;;;;2.97;1.98;;;;;11.20;100058.00;;;;5047094;28;20210;-79
2020/12/31 09:15:16;;;;;;;2.78;1.65;;;;;11.30;100061.00;;;;5059664;28;20210;-79
2020/12/31 09:17:43;;;;;;;2.17;1.92;;;;;11.30;100061.00;;;;5053544;28;20222;-79
2020/12/31 09:20:19;;;;;;;3.22;2.08;;;;;11.20;100073.00;;;;5060641;28;20260;-79
2020/12/31 09:22:47;;;;;;;2.05;1.65;;;;;11.30;100069.00;;;;5058348;28;20293;-79
2020/12/31 09:25:14;;;;;;;2.78;1.80;;;;;11.30;100075.00;;;;5066059;28;20203;-79
2020/12/31 09:27:45;;;;;;;3.10;1.83;;;;;11.40;100080.00;;;;5069404;28;20211;-79
2020/12/31 09:30:14;;;;;;;2.28;1.52;;;;;11.40;100068.00;;;;5060909;28;20233;-80
2020/12/31 09:32:44;;;;;;;2.20;1.58;;;;;11.40;100074.00;;;;5059315;28;20238;-79
2020/12/31 09:35:12;;;;;;;2.92;1.70;;;;;11.40;100078.00;;;;5061389;28;20210;-78
2020/12/31 09:37:47;;;;;;;2.97;1.40;;;;;11.40;100079.00;;;;5071222;28;20254;-79
2020/12/31 09:40:13;;;;;;;2.08;1.38;;;;;11.50;100083.00;;;;5079353;28;20202;-79
2020/12/31 09:42:40;;;;;;;2.22;1.30;;;;;11.50;100086.00;;;;5081181;28;20198;-79
2020/12/31 09:45:07;;;;;;;2.33;1.40;;;;;11.50;100083.00;;;;5068342;28;20225;-79
2020/12/31 09:47:34;;;;;;;2.30;1.23;;;;;11.50;100075.00;;;;5067691;28;20209;-79
2020/12/31 09:50:01;;;;;;;1.92;1.30;;;;;11.60;100090.00;;;;5074371;28;20327;-79
2020/12/31 09:52:30;;;;;;;2.90;1.90;;;;;11.60;100095.00;;;;5063894;28;20214;-81
2020/12/31 09:54:58;;;;;;;3.67;1.83;;;;;11.60;100088.00;;;;5076715;28;20198;-79
2020/12/31 09:57:25;;;;;;;2.17;1.33;;;;;11.60;100092.00;;;;5070337;28;20223;-79
2020/12/31 09:59:51;;;;;;;2.55;1.63;;;;;11.60;100088.00;;;;5055643;28;20231;-79
2020/12/31 10:02:18;;;;;;;2.42;1.50;;;;;11.60;100087.00;;;;5068288;28;20265;-78
2020/12/31 10:04:45;;;;;;;2.85;1.35;;;;;11.60;100092.00;;;;5056766;28;20196;-79
2020/12/31 10:07:12;;;;;;;1.70;1.15;;;;;11.60;100091.00;;;;5067823;28;20225;-79
2020/12/31 10:09:38;;;;;;;2.63;1.88;;;;;11.60;100095.00;;;;5065287;28;20225;-80
2020/12/31 10:12:06;;;;;;;2.35;1.70;;;;;11.60;100096.00;;;;5071481;28;20265;-79
2020/12/31 10:14:33;;;;;;;2.95;1.55;;;;;11.70;100088.00;;;;5055202;28;20195;-79
2020/12/31 10:17:00;;;;;;;1.70;1.25;;;;;11.70;100099.00;;;;5054839;28;20242;-79
2020/12/31 10:19:26;;;;;;;2.65;1.50;;;;;11.70;100088.00;;;;5065075;28;20210;-79
2020/12/31 10:21:53;;;;;;;2.08;1.65;;;;;11.70;100086.00;;;;5054897;28;20196;-81
2020/12/31 10:24:20;;;;;;;2.03;1.38;;;;;11.70;100087.00;;;;5059090;28;20693;-80
2020/12/31 10:26:47;;;;;;;2.33;1.27;;;;;11.70;100084.00;;;;5054528;28;20191;-80
2020/12/31 10:29:15;;;;;;;4.25;1.88;;;;;11.70;100090.00;;;;5060449;28;20248;-80
2020/12/31 10:31:42;;;;;;;4.70;1.67;;;;;11.70;100081.00;;;;5058895;28;20202;-80
2020/12/31 10:34:09;;;;;;;2.33;1.42;;;;;11.70;100085.00;;;;5070040;28;20207;-81
2020/12/31 10:36:36;;;;;;;1.58;1.30;;;;;11.70;100078.00;;;;5051389;28;20629;-81
2020/12/31 10:39:03;;;;;;;2.03;1.40;;;;;11.70;100081.00;;;;5050572;28;20207;-80
2020/12/31 10:41:31;;;;;;;1.80;1.30;;;;;11.70;100089.00;;;;5051630;28;20199;-81
2020/12/31 10:43:58;;;;;;;2.80;1.40;;;;;11.70;100082.00;;;;5059455;28;20203;-80
2020/12/31 10:46:26;;;;;;;2.28;1.60;;;;;11.70;100082.00;;;;5052632;28;20204;-81
2020/12/31 10:48:53;;;;;;;2.65;1.50;;;;;11.60;100082.00;;;;5059071;28;20199;-82
2020/12/31 10:51:20;;;;;;;2.05;1.67;;;;;11.60;100083.00;;;;5056682;28;20196;-81
2020/12/31 10:53:47;;;;;;;2.92;2.08;;;;;11.60;100078.00;;;;5058501;28;20688;-81
2020/12/31 10:56:19;;;;;;;3.15;2.20;;;;;11.60;100075.00;;;;5071457;28;20234;-82
2020/12/31 10:58:46;;;;;;;3.15;1.63;;;;;11.60;100076.00;;;;5064723;28;20318;-82
2020/12/31 11:01:15;;;;;;;3.45;2.00;;;;;11.60;100069.00;;;;5069845;28;20204;-79
2020/12/31 11:03:43;;;;;;;2.08;1.52;;;;;11.60;100069.00;;;;5061579;28;20195;-80
2020/12/31 11:06:16;;;;;;;3.30;1.95;;;;;11.60;100068.00;;;;5073676;28;20199;-79
2020/12/31 11:08:43;;;;;;;2.25;1.77;;;;;11.60;100067.00;;;;5075108;28;20668;-79
2020/12/31 11:11:14;;;;;;;2.85;1.40;;;;;11.60;100079.00;;;;5069709;28;20226;-79
2020/12/31 11:13:41;;;;;;;4.68;1.95;;;;;11.60;100067.00;;;;5060905;28;20200;-79
2020/12/31 11:16:08;;;;;;;3.83;1.75;;;;;11.60;100073.00;;;;5072112;28;20248;-78
2020/12/31 11:18:35;;;;;;;2.95;1.77;;;;;11.60;100067.00;;;;5064718;28;20692;-78
2020/12/31 11:21:02;;;;;;;3.47;2.30;;;;;11.60;100066.00;;;;5058855;28;20204;-78
2020/12/31 11:23:29;;;;;;;3.65;2.33;;;;;11.60;100064.00;;;;5066473;28;20207;-79
2020/12/31 11:25:56;;;;;;;3.10;2.05;;;;;11.60;100059.00;;;;5072404;28;20207;-78
2020/12/31 11:28:23;;;;;;;3.47;2.47;;;;;11.60;100061.00;;;;5055543;28;20203;-78
2020/12/31 11:30:50;;;;;;;3.00;2.42;;;;;11.60;100060.00;;;;5059077;28;20225;-79
2020/12/31 11:33:17;;;;;;;4.10;2.88;;;;;11.60;100056.00;;;;5051671;28;20234;-79
2020/12/31 11:35:44;;;;;;;3.58;2.63;;;;;11.60;100057.00;;;;5060727;28;20195;-78
2020/12/31 11:38:12;;;;;;;5.35;2.53;;;;;11.60;100059.00;;;;5052037;28;20203;-79
2020/12/31 11:40:39;;;;;;;4.10;2.85;;;;;11.60;100058.00;;;;5058285;28;20731;-78
2020/12/31 11:43:05;;;;;;;8.88;2.92;;;;;11.60;100058.00;;;;5053241;28;20246;-79
2020/12/31 11:45:32;;;;;;;3.22;2.53;;;;;11.60;100068.00;;;;5060073;28;20199;-80
2020/12/31 11:47:59;;;;;;;4.47;3.25;;;;;11.60;100057.00;;;;5066759;28;20256;-80
2020/12/31 11:50:25;;;;;;;3.83;2.65;;;;;11.60;100055.00;;;;5055927;28;20652;-79
2020/12/31 11:52:52;;;;;;;4.38;2.65;;;;;11.60;100063.00;;;;5052911;28;20199;-79
2020/12/31 11:55:20;;;;;;;6.18;3.63;;;;;11.60;100058.00;;;;5054786;28;20214;-78
2020/12/31 11:57:47;;;;;;;4.60;2.85;;;;;11.60;100057.00;;;;5066683;28;20231;-79
2020/12/31 12:00:14;;;;;;;4.70;3.03;;;;;11.60;100055.00;;;;5056866;28;20231;-79
2020/12/31 12:02:41;;;;;;;5.20;3.20;;;;;11.60;100053.00;;;;5061404;28;20253;-79
2020/12/31 12:05:08;;;;;;;6.07;3.03;;;;;11.60;100057.00;;;;5062741;28;20208;-79
2020/12/31 12:07:35;;;;;;;6.47;3.20;;;;;11.60;100051.00;;;;5050888;28;20207;-79
2020/12/31 12:10:02;;;;;;;6.75;2.97;;;;;11.60;100049.00;;;;5057463;28;20229;-79
2020/12/31 12:12:30;;;;;;;6.22;3.42;;;;;11.60;100049.00;;;;5052543;28;20211;-79
2020/12/31 12:14:56;;;;;;;6.70;2.75;;;;;11.70;100050.00;;;;5049134;28;20207;-78
2020/12/31 12:17:23;;;;;;;5.35;3.08;;;;;11.70;100047.00;;;;5057816;28;20238;-77